Time;durP1;ratioP1;P1;durP2;ratioP2;P2;SDS_P1;SDS_P2;PMS_P1;PMS_P2;Temp;Humidity;BMP_temperature;BMP_pressure;BME280_temperature;BME280_humidity;BME280_pressure;Samples;Min_cycle;Max_cycle;Signal;HPM_P1;HPM_P2
2022/12/05 00:02:22;;;;;;;12.75;9.88;;;;;;;;;;5051434;28;20457;-69
2022/12/05 00:04:49;;;;;;;11.65;9.15;;;;;;;;;;5047531;28;20053;-69
2022/12/05 00:07:15;;;;;;;13.60;9.30;;;;;;;;;;5051824;28;20053;-69
2022/12/05 00:09:41;;;;;;;15.10;9.55;;;;;;;;;;5052618;28;20095;-69
2022/12/05 00:12:08;;;;;;;12.27;9.63;;;;;;;;;;5052677;28;20132;-68
2022/12/05 00:14:34;;;;;;;14.18;10.20;;;;;;;;;;5052621;28;20128;-69
2022/12/05 00:17:01;;;;;;;13.35;10.57;;;;;;;;;;5052897;28;20128;-69
2022/12/05 00:19:27;;;;;;;12.73;9.85;;;;;;;;;;5052817;28;20071;-69
2022/12/05 00:21:53;;;;;;;15.55;10.32;;;;;;;;;;5051324;28;20160;-69
2022/12/05 00:24:20;;;;;;;13.85;9.88;;;;;;;;;;5052834;28;20080;-69
2022/12/05 00:26:46;;;;;;;13.40;10.23;;;;;;;;;;5053023;28;20056;-69
2022/12/05 00:29:13;;;;;;;13.80;10.13;;;;;;;;;;5052762;28;20128;-69
2022/12/05 00:31:39;;;;;;;14.45;9.98;;;;;;;;;;5052462;28;20069;-69
2022/12/05 00:34:06;;;;;;;14.00;10.05;;;;;;;;;;5052757;28;20048;-69
2022/12/05 00:36:34;;;;;;;12.43;9.38;;;;;;;;;;5052417;28;20431;-69
2022/12/05 00:39:07;;;;;;;14.25;10.25;;;;;;;;;;5052483;28;20059;-69
2022/12/05 00:41:33;;;;;;;13.45;9.55;;;;;;;;;;5052759;28;20123;-69
2022/12/05 00:44:00;;;;;;;15.80;10.30;;;;;;;;;;5052306;28;20403;-69
2022/12/05 00:46:28;;;;;;;13.23;9.30;;;;;;;;;;5052236;28;20045;-69
2022/12/05 00:48:55;;;;;;;13.02;9.90;;;;;;;;;;5052155;28;20059;-69
2022/12/05 00:51:27;;;;;;;12.73;9.65;;;;;;;;;;5052198;28;20507;-69
2022/12/05 00:53:53;;;;;;;14.40;10.43;;;;;;;;;;5048429;28;20049;-69
2022/12/05 00:56:21;;;;;;;15.25;10.23;;;;;;;;;;5041294;28;20399;-69
2022/12/05 00:58:48;;;;;;;14.60;10.85;;;;;;;;;;5051911;28;20148;-69
2022/12/05 01:01:19;;;;;;;16.07;11.57;;;;;;;;;;5052051;28;20136;-68
2022/12/05 01:03:46;;;;;;;15.57;10.00;;;;;;;;;;5051795;28;20475;-69
2022/12/05 01:06:14;;;;;;;16.25;11.20;;;;;;;;;;5051940;28;20052;-69
2022/12/05 01:08:41;;;;;;;14.00;10.43;;;;;;;;;;5051884;28;20508;-69
2022/12/05 01:11:07;;;;;;;15.73;11.18;;;;;;;;;;5051560;28;20044;-69
2022/12/05 01:13:34;;;;;;;14.30;10.23;;;;;;;;;;5051781;28;20611;-69
2022/12/05 01:16:01;;;;;;;15.52;10.90;;;;;;;;;;5051664;28;20102;-69
2022/12/05 01:18:27;;;;;;;13.00;9.73;;;;;;;;;;5042602;28;20057;-69
2022/12/05 01:20:54;;;;;;;13.70;9.82;;;;;;;;;;5046559;28;20099;-69
2022/12/05 01:23:21;;;;;;;13.45;10.48;;;;;;;;;;5051625;28;20136;-69
2022/12/05 01:25:48;;;;;;;14.45;10.07;;;;;;;;;;5051524;28;20496;-69
2022/12/05 01:28:15;;;;;;;14.30;10.67;;;;;;;;;;5051557;28;20128;-69
2022/12/05 01:30:42;;;;;;;13.57;10.18;;;;;;;;;;5051578;28;20127;-69
2022/12/05 01:33:09;;;;;;;12.35;9.35;;;;;;;;;;5051364;28;20040;-69
2022/12/05 01:35:37;;;;;;;13.77;9.85;;;;;;;;;;5051812;28;20147;-69
2022/12/05 01:38:03;;;;;;;14.57;9.85;;;;;;;;;;5051602;28;20084;-69
2022/12/05 01:40:30;;;;;;;14.90;9.73;;;;;;;;;;5051461;28;20136;-69
2022/12/05 01:42:57;;;;;;;14.07;10.02;;;;;;;;;;5051418;28;20519;-69
2022/12/05 01:45:33;;;;;;;14.18;9.85;;;;;;;;;;5051408;28;20156;-69
2022/12/05 01:48:02;;;;;;;17.50;10.63;;;;;;;;;;5051263;28;20045;-69
2022/12/05 01:50:28;;;;;;;14.52;10.52;;;;;;;;;;5051567;28;20044;-69
2022/12/05 01:52:54;;;;;;;15.90;10.52;;;;;;;;;;5051643;28;20072;-69
2022/12/05 01:55:21;;;;;;;15.45;10.48;;;;;;;;;;5051407;28;20057;-69
2022/12/05 01:57:47;;;;;;;15.65;11.10;;;;;;;;;;5051573;28;20080;-69
2022/12/05 02:00:16;;;;;;;15.60;10.93;;;;;;;;;;5051196;28;20213;-69
2022/12/05 02:02:47;;;;;;;17.25;11.07;;;;;;;;;;5051187;28;20133;-69
2022/12/05 02:05:17;;;;;;;16.40;11.27;;;;;;;;;;5053699;28;20064;-69
2022/12/05 02:07:44;;;;;;;15.30;11.07;;;;;;;;;;5055375;28;20084;-69
2022/12/05 02:10:10;;;;;;;17.20;12.10;;;;;;;;;;5053718;28;20045;-69
2022/12/05 02:12:37;;;;;;;15.40;11.60;;;;;;;;;;5055144;28;20400;-69
2022/12/05 02:15:13;;;;;;;14.88;11.13;;;;;;;;;;5055418;28;20106;-69
2022/12/05 02:17:39;;;;;;;15.75;11.00;;;;;;;;;;5055235;28;20494;-69
2022/12/05 02:20:24;;;;;;;16.67;11.32;;;;;;;;;;5055120;28;20125;-69
2022/12/05 02:23:09;;;;;;;16.23;10.85;;;;;;;;;;5053664;28;20053;-69
2022/12/05 02:25:58;;;;;;;17.23;11.55;;;;;;;;;;5055077;28;20106;-69
2022/12/05 02:28:42;;;;;;;16.75;11.60;;;;;;;;;;5054724;28;20132;-69
2022/12/05 02:31:16;;;;;;;19.08;10.88;;;;;;;;;;5054947;28;20571;-69
2022/12/05 02:33:47;;;;;;;17.27;11.77;;;;;;;;;;5055002;28;20384;-69
2022/12/05 02:36:21;;;;;;;17.98;11.27;;;;;;;;;;5054642;28;20114;-69
2022/12/05 02:38:51;;;;;;;14.52;10.35;;;;;;;;;;5054674;28;20063;-69
2022/12/05 02:41:20;;;;;;;18.15;11.80;;;;;;;;;;5054540;28;20049;-69
2022/12/05 02:43:50;;;;;;;19.42;11.40;;;;;;;;;;5054806;28;20076;-69
2022/12/05 02:46:19;;;;;;;16.42;11.75;;;;;;;;;;5054384;28;20128;-69
2022/12/05 02:48:47;;;;;;;19.85;12.98;;;;;;;;;;5054951;28;20102;-69
2022/12/05 02:51:16;;;;;;;18.25;13.27;;;;;;;;;;5054600;28;20084;-69
2022/12/05 02:53:44;;;;;;;19.45;13.18;;;;;;;;;;5050021;28;20481;-69
2022/12/05 02:56:11;;;;;;;18.17;13.13;;;;;;;;;;5044833;28;20144;-69
2022/12/05 02:58:40;;;;;;;16.65;12.27;;;;;;;;;;5054469;28;20049;-69
2022/12/05 03:01:07;;;;;;;17.83;12.43;;;;;;;;;;5054500;28;20087;-69
2022/12/05 03:03:34;;;;;;;19.48;13.15;;;;;;;;;;5054276;28;20107;-69
2022/12/05 03:06:00;;;;;;;17.38;12.55;;;;;;;;;;5054369;28;20088;-69
2022/12/05 03:08:30;;;;;;;19.42;12.90;;;;;;;;;;5054225;28;20049;-69
2022/12/05 03:10:57;;;;;;;18.00;12.90;;;;;;;;;;5054118;28;20441;-69
2022/12/05 03:13:26;;;;;;;17.67;12.75;;;;;;;;;;5053992;28;20527;-69
2022/12/05 03:15:55;;;;;;;16.50;11.30;;;;;;;;;;5053053;28;20048;-69
2022/12/05 03:18:23;;;;;;;16.38;11.75;;;;;;;;;;5052591;28;20049;-69
2022/12/05 03:21:02;;;;;;;16.58;12.13;;;;;;;;;;5053969;28;20053;-69
2022/12/05 03:23:33;;;;;;;15.32;11.45;;;;;;;;;;5054293;28;20164;-69
2022/12/05 03:26:19;;;;;;;16.33;12.10;;;;;;;;;;5053592;28;20476;-69
2022/12/05 03:28:51;;;;;;;16.02;11.77;;;;;;;;;;5053920;28;20052;-69
2022/12/05 03:31:23;;;;;;;18.00;12.85;;;;;;;;;;5053690;28;20051;-69
2022/12/05 03:33:52;;;;;;;15.02;11.77;;;;;;;;;;5053654;28;20048;-69
2022/12/05 03:36:22;;;;;;;17.15;13.18;;;;;;;;;;5053410;28;20095;-69
2022/12/05 03:38:52;;;;;;;16.73;12.30;;;;;;;;;;5053751;28;20440;-69
2022/12/05 03:41:37;;;;;;;16.90;13.45;;;;;;;;;;5053616;28;20438;-68
2022/12/05 03:44:12;;;;;;;18.27;12.88;;;;;;;;;;5053527;28;20059;-69
2022/12/05 03:46:42;;;;;;;20.95;15.18;;;;;;;;;;5053248;28;20465;-69
2022/12/05 03:49:11;;;;;;;19.75;14.32;;;;;;;;;;5053660;28;20049;-69
2022/12/05 03:51:43;;;;;;;20.27;14.02;;;;;;;;;;5053495;28;20469;-69
2022/12/05 03:54:13;;;;;;;17.80;14.07;;;;;;;;;;5053385;28;20080;-69
2022/12/05 03:56:45;;;;;;;21.75;14.75;;;;;;;;;;5053224;28;20044;-69
2022/12/05 03:59:21;;;;;;;17.85;13.18;;;;;;;;;;5053035;28;20051;-69
2022/12/05 04:01:49;;;;;;;21.02;14.57;;;;;;;;;;5053426;28;20088;-69
2022/12/05 04:04:20;;;;;;;21.60;14.70;;;;;;;;;;5053489;28;20517;-69
2022/12/05 04:06:49;;;;;;;19.30;14.13;;;;;;;;;;5052081;28;20083;-68
2022/12/05 04:09:21;;;;;;;18.02;13.93;;;;;;;;;;5053026;28;20087;-69
2022/12/05 04:11:52;;;;;;;20.42;14.02;;;;;;;;;;5053081;28;20053;-69
2022/12/05 04:14:39;;;;;;;21.83;15.25;;;;;;;;;;5053136;28;20124;-69
2022/12/05 04:17:08;;;;;;;19.30;14.55;;;;;;;;;;5051391;28;20057;-69
2022/12/05 04:22:26;;;;;;;20.52;14.98;;;;;;;;;;5052495;28;20060;-69
2022/12/05 04:27:55;;;;;;;20.52;15.23;;;;;;;;;;5052724;28;20074;-69
2022/12/05 04:30:23;;;;;;;20.50;14.98;;;;;;;;;;5052596;28;20132;-69
2022/12/05 04:33:02;;;;;;;21.52;15.18;;;;;;;;;;5051480;28;20127;-69
2022/12/05 04:35:31;;;;;;;21.65;14.90;;;;;;;;;;5052511;28;20491;-69
2022/12/05 04:38:02;;;;;;;22.23;14.75;;;;;;;;;;5052354;28;20132;-69
2022/12/05 04:40:32;;;;;;;20.90;14.32;;;;;;;;;;5051072;28;20516;-69
2022/12/05 04:43:01;;;;;;;22.25;14.65;;;;;;;;;;5052587;28;20056;-69
2022/12/05 04:45:28;;;;;;;20.85;14.85;;;;;;;;;;5052404;28;20128;-69
2022/12/05 04:47:56;;;;;;;19.85;14.40;;;;;;;;;;5052368;28;20051;-69
2022/12/05 04:50:23;;;;;;;19.67;13.73;;;;;;;;;;5052241;28;20070;-69
2022/12/05 04:52:52;;;;;;;19.35;13.90;;;;;;;;;;5052256;28;20132;-69
2022/12/05 04:55:24;;;;;;;18.83;14.07;;;;;;;;;;5052060;28;20053;-69
2022/12/05 04:57:58;;;;;;;18.45;13.48;;;;;;;;;;5052359;28;20083;-69
2022/12/05 05:00:27;;;;;;;19.80;13.80;;;;;;;;;;5052334;28;20144;-69
2022/12/05 05:02:57;;;;;;;21.50;14.50;;;;;;;;;;5050725;28;20127;-69
2022/12/05 05:05:24;;;;;;;20.33;14.73;;;;;;;;;;5051990;28;20049;-69
2022/12/05 05:07:54;;;;;;;20.73;14.82;;;;;;;;;;5051965;28;20071;-69
2022/12/05 05:10:24;;;;;;;18.98;14.55;;;;;;;;;;5052028;28;20110;-69
2022/12/05 05:12:50;;;;;;;21.65;15.85;;;;;;;;;;5051835;28;20527;-69
2022/12/05 05:15:17;;;;;;;21.65;14.55;;;;;;;;;;5052103;28;20048;-69
2022/12/05 05:17:43;;;;;;;20.27;15.43;;;;;;;;;;5051665;28;20132;-69
2022/12/05 05:20:26;;;;;;;22.83;17.05;;;;;;;;;;5051780;28;20080;-69
2022/12/05 05:22:53;;;;;;;22.42;15.73;;;;;;;;;;5051606;28;20056;-69
2022/12/05 05:25:20;;;;;;;20.77;15.63;;;;;;;;;;5052089;28;20051;-69
2022/12/05 05:27:48;;;;;;;20.90;15.45;;;;;;;;;;5051696;28;20040;-69
2022/12/05 05:30:15;;;;;;;24.10;15.20;;;;;;;;;;5051842;28;20136;-69
2022/12/05 05:32:42;;;;;;;24.02;16.65;;;;;;;;;;5051752;28;20045;-69
2022/12/05 05:35:08;;;;;;;19.80;15.63;;;;;;;;;;5051799;28;20123;-69
2022/12/05 05:37:35;;;;;;;20.33;15.00;;;;;;;;;;5051723;28;20140;-69
2022/12/05 05:40:01;;;;;;;20.63;15.40;;;;;;;;;;5051166;28;20128;-69
2022/12/05 05:42:34;;;;;;;21.52;15.25;;;;;;;;;;5051646;28;20049;-69
2022/12/05 05:45:01;;;;;;;24.05;16.77;;;;;;;;;;5051723;28;20091;-69
2022/12/05 05:47:27;;;;;;;22.98;16.13;;;;;;;;;;5051244;28;20587;-69
2022/12/05 05:49:54;;;;;;;22.73;16.08;;;;;;;;;;5052517;28;20128;-69
2022/12/05 05:52:20;;;;;;;20.98;15.90;;;;;;;;;;5051360;28;20041;-69
2022/12/05 05:54:47;;;;;;;21.00;15.63;;;;;;;;;;5051601;28;20155;-69
2022/12/05 05:57:13;;;;;;;26.08;16.35;;;;;;;;;;5051582;28;20053;-69
2022/12/05 05:59:45;;;;;;;22.42;16.38;;;;;;;;;;5051556;28;20135;-69
2022/12/05 06:02:12;;;;;;;20.75;16.17;;;;;;;;;;5051254;28;20084;-69
2022/12/05 06:04:38;;;;;;;23.08;16.80;;;;;;;;;;5052212;28;20445;-69
2022/12/05 06:07:04;;;;;;;21.90;16.23;;;;;;;;;;5051293;28;20041;-69
2022/12/05 06:09:31;;;;;;;24.85;17.35;;;;;;;;;;5051351;28;20049;-69
2022/12/05 06:11:57;;;;;;;23.15;18.02;;;;;;;;;;5051219;28;20551;-69
2022/12/05 06:14:24;;;;;;;22.80;17.73;;;;;;;;;;5051289;28;20136;-68
2022/12/05 06:16:50;;;;;;;24.77;17.70;;;;;;;;;;5051376;28;20118;-69
2022/12/05 06:19:17;;;;;;;25.70;18.98;;;;;;;;;;5050098;28;20060;-69
2022/12/05 06:21:43;;;;;;;28.13;19.95;;;;;;;;;;5050994;28;20052;-69
2022/12/05 06:24:10;;;;;;;25.02;18.38;;;;;;;;;;5051073;28;20593;-69
2022/12/05 06:26:36;;;;;;;25.92;18.20;;;;;;;;;;5051095;28;20136;-69
2022/12/05 06:29:02;;;;;;;28.00;20.35;;;;;;;;;;5050949;28;20089;-69
2022/12/05 06:31:30;;;;;;;25.80;19.63;;;;;;;;;;5051378;28;20454;-69
2022/12/05 06:33:57;;;;;;;;;;;;;;;;;;5051643;28;20053;-69
2022/12/05 06:36:23;;;;;;;26.45;19.13;;;;;;;;;;5050909;28;19921;-69
2022/12/05 06:38:50;;;;;;;26.80;18.70;;;;;;;;;;5050920;28;20558;-70
2022/12/05 06:41:17;;;;;;;26.85;19.20;;;;;;;;;;5051124;28;20132;-69
2022/12/05 06:43:44;;;;;;;;;;;;;;;;;;5051347;28;20132;-70
2022/12/05 06:46:11;;;;;;;29.58;19.60;;;;;;;;;;5050901;28;20455;-69
2022/12/05 06:48:38;;;;;;;28.17;19.20;;;;;;;;;;5051207;28;20088;-69
2022/12/05 06:51:07;;;;;;;24.33;17.75;;;;;;;;;;5051161;28;20087;-69
2022/12/05 06:53:34;;;;;;;25.75;17.92;;;;;;;;;;5054478;28;20073;-70
2022/12/05 06:56:02;;;;;;;23.27;18.00;;;;;;;;;;5054594;28;20057;-70
2022/12/05 06:58:29;;;;;;;24.60;17.98;;;;;;;;;;5054199;28;20522;-70
2022/12/05 07:03:42;;;;;;;32.20;20.85;;;;;;;;;;5054203;28;20106;-69
2022/12/05 07:06:09;;;;;;;26.88;19.33;;;;;;;;;;5053277;28;20123;-69
2022/12/05 07:08:35;;;;;;;28.63;19.98;;;;;;;;;;5050770;28;20047;-69
2022/12/05 07:11:02;;;;;;;27.63;19.20;;;;;;;;;;5054010;28;20468;-69
2022/12/05 07:13:28;;;;;;;27.67;20.05;;;;;;;;;;5052863;28;20132;-69
2022/12/05 07:15:57;;;;;;;24.10;18.52;;;;;;;;;;5053948;28;20573;-69
2022/12/05 07:18:24;;;;;;;25.23;18.88;;;;;;;;;;5052333;28;20431;-69
2022/12/05 07:20:58;;;;;;;27.33;18.92;;;;;;;;;;5033543;28;20053;-70
2022/12/05 07:23:41;;;;;;;27.35;19.15;;;;;;;;;;5043440;28;20056;-69
2022/12/05 07:26:08;;;;;;;26.30;18.25;;;;;;;;;;5053733;28;20084;-70
2022/12/05 07:28:35;;;;;;;28.45;19.52;;;;;;;;;;5053992;28;20055;-70
2022/12/05 07:31:02;;;;;;;30.13;21.67;;;;;;;;;;5053948;28;20423;-69
2022/12/05 07:33:28;;;;;;;38.85;27.42;;;;;;;;;;5053720;28;20102;-69
2022/12/05 07:36:02;;;;;;;44.60;32.20;;;;;;;;;;5053391;28;20508;-69
2022/12/05 07:38:29;;;;;;;40.50;30.88;;;;;;;;;;5053824;28;20135;-69
2022/12/05 07:40:55;;;;;;;31.30;24.13;;;;;;;;;;5048631;28;20523;-69
2022/12/05 07:43:22;;;;;;;30.40;22.02;;;;;;;;;;5043454;28;20136;-69
2022/12/05 07:45:48;;;;;;;26.83;20.08;;;;;;;;;;5053667;28;20044;-68
2022/12/05 07:48:15;;;;;;;28.58;19.92;;;;;;;;;;5053228;28;20056;-70
2022/12/05 07:50:44;;;;;;;27.58;18.60;;;;;;;;;;5043528;28;20060;-69
2022/12/05 07:53:10;;;;;;;25.02;18.35;;;;;;;;;;5043397;28;20041;-69
2022/12/05 07:55:37;;;;;;;28.85;19.42;;;;;;;;;;5053159;28;20128;-69
2022/12/05 07:58:04;;;;;;;29.50;18.33;;;;;;;;;;5053229;28;20501;-70
2022/12/05 08:00:30;;;;;;;28.02;18.92;;;;;;;;;;5053088;28;20135;-70
2022/12/05 08:02:56;;;;;;;29.67;17.80;;;;;;;;;;5052627;28;20045;-69
2022/12/05 08:05:23;;;;;;;24.60;18.25;;;;;;;;;;5053078;28;20488;-69
2022/12/05 08:07:49;;;;;;;29.17;17.80;;;;;;;;;;5053073;28;20128;-69
2022/12/05 08:10:16;;;;;;;25.35;17.15;;;;;;;;;;5053210;28;20060;-69
2022/12/05 08:12:42;;;;;;;23.85;18.10;;;;;;;;;;5053367;28;20083;-69
2022/12/05 08:15:09;;;;;;;22.13;17.10;;;;;;;;;;5052895;28;20080;-68
2022/12/05 08:17:35;;;;;;;27.70;17.98;;;;;;;;;;5050379;28;20045;-68
2022/12/05 08:20:02;;;;;;;24.73;17.17;;;;;;;;;;5032620;28;20055;-69
2022/12/05 08:22:28;;;;;;;26.92;17.48;;;;;;;;;;5032223;28;20465;-68
2022/12/05 08:24:55;;;;;;;26.45;17.25;;;;;;;;;;5032606;28;20049;-69
2022/12/05 08:27:21;;;;;;;27.50;18.08;;;;;;;;;;5040500;28;20076;-69
2022/12/05 08:29:48;;;;;;;26.08;20.38;;;;;;;;;;5044316;28;20109;-69
2022/12/05 08:32:14;;;;;;;23.55;16.60;;;;;;;;;;5032161;28;20504;-68
2022/12/05 08:34:41;;;;;;;21.77;16.52;;;;;;;;;;5042000;28;20457;-68
2022/12/05 08:37:07;;;;;;;21.90;17.42;;;;;;;;;;5045050;28;20046;-68
2022/12/05 08:39:35;;;;;;;25.42;17.52;;;;;;;;;;5045736;28;20491;-68
2022/12/05 08:42:04;;;;;;;22.27;16.05;;;;;;;;;;5042565;28;20100;-69
2022/12/05 08:44:30;;;;;;;21.40;15.23;;;;;;;;;;5045834;28;20049;-68
2022/12/05 08:46:57;;;;;;;27.83;18.60;;;;;;;;;;5052396;28;20469;-68
2022/12/05 08:49:23;;;;;;;27.20;18.10;;;;;;;;;;5052222;28;20560;-68
2022/12/05 08:51:50;;;;;;;23.48;17.02;;;;;;;;;;5052129;28;20069;-69
2022/12/05 08:54:16;;;;;;;24.55;16.67;;;;;;;;;;5052234;28;20160;-69
2022/12/05 08:56:43;;;;;;;21.85;15.57;;;;;;;;;;5052205;28;20044;-69
2022/12/05 08:59:09;;;;;;;21.55;16.00;;;;;;;;;;5052273;28;20132;-68
2022/12/05 09:01:37;;;;;;;22.10;15.82;;;;;;;;;;5052208;28;20087;-69
2022/12/05 09:04:05;;;;;;;20.67;15.32;;;;;;;;;;5052123;28;20080;-69
2022/12/05 09:06:31;;;;;;;22.48;16.13;;;;;;;;;;5050786;28;20494;-69
2022/12/05 09:08:59;;;;;;;24.90;16.45;;;;;;;;;;5051775;28;20660;-69
2022/12/05 09:11:26;;;;;;;24.58;16.13;;;;;;;;;;5052033;28;20048;-69
2022/12/05 09:13:54;;;;;;;23.45;16.52;;;;;;;;;;5051492;28;20536;-69
2022/12/05 09:16:22;;;;;;;22.48;16.13;;;;;;;;;;5052009;28;20045;-69
2022/12/05 09:18:49;;;;;;;22.13;16.58;;;;;;;;;;5044459;28;20053;-70
2022/12/05 09:21:17;;;;;;;25.07;16.87;;;;;;;;;;5043195;28;20092;-71
2022/12/05 09:23:44;;;;;;;24.80;16.38;;;;;;;;;;5035112;28;20126;-71
2022/12/05 09:26:12;;;;;;;21.83;16.00;;;;;;;;;;5030753;28;20100;-71
2022/12/05 09:28:38;;;;;;;;;;;;;;;;;;5031102;28;20047;-71
2022/12/05 09:31:06;;;;;;;21.88;15.40;;;;;;;;;;5036623;28;20014;-71
2022/12/05 09:33:34;;;;;;;23.30;15.20;;;;;;;;;;5051220;28;20049;-67
2022/12/05 09:36:04;;;;;;;21.98;14.98;;;;;;;;;;5047497;28;20098;-70
2022/12/05 09:38:31;;;;;;;21.40;14.80;;;;;;;;;;5041496;28;20465;-70
2022/12/05 09:41:03;;;;;;;21.63;15.77;;;;;;;;;;5034486;28;20084;-71
2022/12/05 09:43:33;;;;;;;20.15;14.55;;;;;;;;;;5030806;28;20509;-70
2022/12/05 09:46:03;;;;;;;19.45;14.23;;;;;;;;;;5031141;28;20140;-70
2022/12/05 09:48:30;;;;;;;21.00;14.77;;;;;;;;;;5030854;28;20091;-70
2022/12/05 09:50:59;;;;;;;21.38;14.65;;;;;;;;;;5031056;28;20128;-70
2022/12/05 09:53:32;;;;;;;21.10;14.30;;;;;;;;;;5048060;28;20124;-70
2022/12/05 09:55:59;;;;;;;19.83;14.32;;;;;;;;;;5050736;28;20045;-71
2022/12/05 09:58:25;;;;;;;19.50;14.05;;;;;;;;;;5050873;28;20543;-70
2022/12/05 10:01:00;;;;;;;17.52;13.98;;;;;;;;;;5030659;28;20152;-70
2022/12/05 10:03:29;;;;;;;18.60;13.90;;;;;;;;;;5030821;28;20144;-70
2022/12/05 10:06:13;;;;;;;21.50;14.48;;;;;;;;;;5032920;28;20129;-70
2022/12/05 10:08:59;;;;;;;25.92;15.98;;;;;;;;;;5038936;28;20140;-71
2022/12/05 10:11:26;;;;;;;18.25;13.45;;;;;;;;;;5050798;28;20107;-70
2022/12/05 10:14:19;;;;;;;20.33;13.95;;;;;;;;;;5048154;28;20045;-70
2022/12/05 10:16:48;;;;;;;20.13;13.98;;;;;;;;;;5047531;28;20592;-70
2022/12/05 10:19:17;;;;;;;21.00;13.38;;;;;;;;;;5048088;28;20053;-70
2022/12/05 10:21:44;;;;;;;19.92;13.85;;;;;;;;;;5037101;28;20460;-70
2022/12/05 10:24:15;;;;;;;19.38;12.70;;;;;;;;;;5031829;28;20053;-70
2022/12/05 10:26:43;;;;;;;19.70;13.30;;;;;;;;;;5043814;28;20053;-70
2022/12/05 10:29:12;;;;;;;20.92;14.32;;;;;;;;;;5053062;28;20079;-70
2022/12/05 10:31:40;;;;;;;18.02;13.38;;;;;;;;;;5046732;28;20053;-72
2022/12/05 10:34:13;;;;;;;19.27;13.95;;;;;;;;;;5040689;28;20053;-71
2022/12/05 10:36:43;;;;;;;16.95;13.43;;;;;;;;;;5052269;28;20140;-71
2022/12/05 10:39:10;;;;;;;19.40;13.93;;;;;;;;;;5049083;28;20051;-71
2022/12/05 10:41:37;;;;;;;19.53;14.83;;;;;;;;;;5045302;28;20053;-71
2022/12/05 10:44:03;;;;;;;17.95;14.07;;;;;;;;;;5036880;28;20049;-71
2022/12/05 10:46:30;;;;;;;14.93;12.35;;;;;;;;;;5038122;28;20531;-71
2022/12/05 10:48:57;;;;;;;17.80;12.95;;;;;;;;;;5044089;28;20053;-71
2022/12/05 10:51:25;;;;;;;19.23;13.15;;;;;;;;;;5046737;28;20132;-71
2022/12/05 10:53:56;;;;;;;20.35;12.80;;;;;;;;;;5053935;28;20132;-71
2022/12/05 10:56:36;;;;;;;19.52;12.95;;;;;;;;;;5054080;28;20049;-71
2022/12/05 10:59:03;;;;;;;18.60;12.77;;;;;;;;;;5054081;28;20467;-71
2022/12/05 11:01:30;;;;;;;21.08;12.77;;;;;;;;;;5053930;28;20048;-71
2022/12/05 11:04:03;;;;;;;18.40;12.32;;;;;;;;;;5053561;28;20122;-71
2022/12/05 11:06:37;;;;;;;23.45;13.52;;;;;;;;;;5054458;28;20163;-71
2022/12/05 11:09:18;;;;;;;18.20;12.43;;;;;;;;;;5052195;28;20076;-71
2022/12/05 11:12:05;;;;;;;23.92;13.80;;;;;;;;;;5053981;28;20076;-70
2022/12/05 11:14:33;;;;;;;16.83;12.65;;;;;;;;;;5043289;28;20123;-70
2022/12/05 11:17:00;;;;;;;17.33;12.82;;;;;;;;;;5053849;28;20484;-71
2022/12/05 11:19:28;;;;;;;19.03;12.60;;;;;;;;;;5053324;28;20144;-71
2022/12/05 11:21:54;;;;;;;18.65;13.55;;;;;;;;;;5048263;28;20365;-71
2022/12/05 11:24:28;;;;;;;15.23;11.98;;;;;;;;;;5044018;28;20063;-71
2022/12/05 11:26:59;;;;;;;18.08;12.40;;;;;;;;;;5051904;28;20557;-71
2022/12/05 11:29:28;;;;;;;15.10;12.35;;;;;;;;;;5053459;28;20140;-72
2022/12/05 11:31:54;;;;;;;19.40;12.77;;;;;;;;;;5053347;28;20128;-72
2022/12/05 11:34:24;;;;;;;17.33;12.48;;;;;;;;;;5053442;28;20131;-72
2022/12/05 11:37:00;;;;;;;15.75;12.05;;;;;;;;;;5050441;28;20531;-72
2022/12/05 11:39:26;;;;;;;18.25;12.93;;;;;;;;;;5052974;28;20140;-71
2022/12/05 11:42:19;;;;;;;14.80;12.55;;;;;;;;;;5052944;28;20144;-71
2022/12/05 11:44:57;;;;;;;15.48;12.20;;;;;;;;;;5052630;28;20449;-71
2022/12/05 11:47:27;;;;;;;18.08;12.55;;;;;;;;;;5052823;28;20057;-71
2022/12/05 11:50:00;;;;;;;15.60;12.13;;;;;;;;;;5052696;28;20144;-72
2022/12/05 11:52:35;;;;;;;15.93;11.30;;;;;;;;;;5052763;28;20045;-72
2022/12/05 11:55:18;;;;;;;15.18;11.05;;;;;;;;;;5052792;28;20622;-71
2022/12/05 11:58:03;;;;;;;13.70;10.10;;;;;;;;;;5052895;28;20567;-71
2022/12/05 12:00:35;;;;;;;12.02;9.27;;;;;;;;;;5052557;28;20610;-72
2022/12/05 12:03:08;;;;;;;10.75;8.70;;;;;;;;;;5052578;28;20084;-72
2022/12/05 12:05:40;;;;;;;10.35;8.50;;;;;;;;;;5042511;28;20045;-71
2022/12/05 12:08:06;;;;;;;8.75;7.90;;;;;;;;;;5046331;28;20071;-71
2022/12/05 12:10:33;;;;;;;9.00;7.75;;;;;;;;;;5052455;28;20049;-71
2022/12/05 12:13:18;;;;;;;9.07;7.03;;;;;;;;;;5047015;28;20046;-71
2022/12/05 12:15:50;;;;;;;10.63;7.68;;;;;;;;;;5039345;28;20048;-71
2022/12/05 12:18:17;;;;;;;8.55;7.30;;;;;;;;;;5052307;28;20452;-71
2022/12/05 12:20:51;;;;;;;10.30;7.85;;;;;;;;;;5051959;28;20140;-71
2022/12/05 12:23:27;;;;;;;10.48;8.00;;;;;;;;;;5052451;28;20510;-71
2022/12/05 12:25:59;;;;;;;9.63;7.88;;;;;;;;;;5052269;28;20404;-71
2022/12/05 12:28:26;;;;;;;11.80;7.97;;;;;;;;;;5050098;28;20049;-71
2022/12/05 12:31:11;;;;;;;10.07;8.07;;;;;;;;;;5051552;28;20053;-71
2022/12/05 12:33:44;;;;;;;8.23;7.30;;;;;;;;;;5052534;28;20056;-71
2022/12/05 12:36:22;;;;;;;10.20;7.65;;;;;;;;;;5051555;28;20044;-71
2022/12/05 12:38:56;;;;;;;10.85;7.18;;;;;;;;;;5052432;28;20049;-71
2022/12/05 12:41:42;;;;;;;9.68;6.78;;;;;;;;;;5052161;28;20140;-71
2022/12/05 12:44:08;;;;;;;9.10;6.75;;;;;;;;;;5052304;28;20144;-71
2022/12/05 12:46:42;;;;;;;10.18;6.85;;;;;;;;;;5050991;28;20084;-71
2022/12/05 12:49:17;;;;;;;10.82;7.85;;;;;;;;;;5051306;28;20080;-71
2022/12/05 12:51:49;;;;;;;8.48;6.82;;;;;;;;;;5052269;28;20045;-71
2022/12/05 12:54:27;;;;;;;9.00;7.18;;;;;;;;;;5052311;28;20140;-71
2022/12/05 12:57:31;;;;;;;10.20;7.15;;;;;;;;;;5052296;28;20049;-71
2022/12/05 13:00:03;;;;;;;8.52;7.20;;;;;;;;;;5052044;28;20057;-71
2022/12/05 13:02:44;;;;;;;9.95;7.13;;;;;;;;;;5052298;28;20080;-71
2022/12/05 13:05:23;;;;;;;7.72;6.80;;;;;;;;;;5052169;28;20053;-71
2022/12/05 13:07:52;;;;;;;10.50;6.80;;;;;;;;;;5052547;28;20136;-71
2022/12/05 13:10:22;;;;;;;7.85;6.72;;;;;;;;;;5052102;28;20088;-71
2022/12/05 13:12:48;;;;;;;8.10;6.28;;;;;;;;;;5051971;28;20055;-71
2022/12/05 13:15:17;;;;;;;8.30;6.25;;;;;;;;;;5051655;28;20063;-71
2022/12/05 13:17:45;;;;;;;7.10;6.00;;;;;;;;;;5052024;28;20136;-71
2022/12/05 13:20:17;;;;;;;7.78;6.75;;;;;;;;;;5050806;28;20087;-71
2022/12/05 13:22:44;;;;;;;8.65;6.57;;;;;;;;;;5051714;28;20084;-71
2022/12/05 13:25:14;;;;;;;8.60;6.20;;;;;;;;;;5052012;28;20459;-71
2022/12/05 13:27:52;;;;;;;7.80;6.40;;;;;;;;;;5051350;28;20063;-71
2022/12/05 13:30:18;;;;;;;8.07;6.72;;;;;;;;;;5051379;28;20045;-71
2022/12/05 13:32:45;;;;;;;7.70;6.70;;;;;;;;;;5045803;28;20132;-71
2022/12/05 13:43:40;;;;;;;10.05;6.85;;;;;;;;;;5050551;28;20164;-71
2022/12/05 13:46:33;;;;;;;7.72;6.85;;;;;;;;;;5050965;28;20075;-71
2022/12/05 13:49:13;;;;;;;9.55;6.75;;;;;;;;;;5044363;28;20131;-71
2022/12/05 13:51:43;;;;;;;7.35;6.20;;;;;;;;;;5030691;28;20049;-71
2022/12/05 13:54:12;;;;;;;8.67;6.60;;;;;;;;;;5030778;28;21063;-71
2022/12/05 13:56:47;;;;;;;7.85;6.43;;;;;;;;;;5030873;28;20155;-71
2022/12/05 13:59:33;;;;;;;8.05;7.13;;;;;;;;;;5030955;28;20136;-71
2022/12/05 14:01:59;;;;;;;9.45;6.68;;;;;;;;;;5033368;28;20056;-71
2022/12/05 14:04:58;;;;;;;7.85;6.70;;;;;;;;;;5047525;28;20052;-71
2022/12/05 14:07:39;;;;;;;11.63;6.97;;;;;;;;;;5040405;28;20120;-72
2022/12/05 14:10:06;;;;;;;8.15;6.57;;;;;;;;;;5041652;28;20048;-71
2022/12/05 14:12:47;;;;;;;8.02;5.72;;;;;;;;;;5048514;28;20144;-71
2022/12/05 14:15:23;;;;;;;10.20;6.07;;;;;;;;;;5034441;28;20050;-71
2022/12/05 14:17:53;;;;;;;6.90;5.78;;;;;;;;;;5040127;28;20471;-70
2022/12/05 14:20:23;;;;;;;8.27;5.78;;;;;;;;;;5054335;28;20080;-71
2022/12/05 14:22:56;;;;;;;6.97;5.38;;;;;;;;;;5053922;28;20092;-71
2022/12/05 14:25:22;;;;;;;8.32;6.00;;;;;;;;;;5037830;28;20099;-72
2022/12/05 14:27:49;;;;;;;7.32;5.90;;;;;;;;;;5035050;28;20137;-72
2022/12/05 14:30:19;;;;;;;7.68;5.80;;;;;;;;;;5034000;28;20088;-71
2022/12/05 14:32:47;;;;;;;7.05;5.78;;;;;;;;;;5034550;28;20065;-71
2022/12/05 14:35:18;;;;;;;6.82;5.43;;;;;;;;;;5034140;28;20045;-71
2022/12/05 14:37:52;;;;;;;6.97;5.60;;;;;;;;;;5033859;28;20132;-72
2022/12/05 14:40:28;;;;;;;8.15;5.25;;;;;;;;;;5036872;28;20090;-71
2022/12/05 14:42:57;;;;;;;7.57;5.43;;;;;;;;;;5054189;28;20061;-72
2022/12/05 14:45:40;;;;;;;7.32;5.57;;;;;;;;;;5052986;28;20053;-72
2022/12/05 14:48:13;;;;;;;9.07;6.15;;;;;;;;;;5048776;28;20055;-72
2022/12/05 14:50:46;;;;;;;7.63;5.68;;;;;;;;;;5046334;28;20132;-72
2022/12/05 14:53:22;;;;;;;9.75;6.65;;;;;;;;;;5054349;28;20148;-72
2022/12/05 14:56:03;;;;;;;12.15;6.97;;;;;;;;;;5053874;28;20144;-72
2022/12/05 14:58:42;;;;;;;7.10;5.78;;;;;;;;;;5054079;28;20453;-72